sensor_id;sensor_type;location;lat;lon;timestamp;P1;durP1;ratioP1;P2;durP2;ratioP2
79687;SDS011;69155;49.464;2.108;2023-06-14T00:02:06;12.20;;;7.88;;
79687;SDS011;69155;49.464;2.108;2023-06-14T00:04:36;11.85;;;7.95;;
79687;SDS011;69155;49.464;2.108;2023-06-14T00:07:06;14.73;;;8.30;;
79687;SDS011;69155;49.464;2.108;2023-06-14T00:09:37;14.05;;;9.30;;
79687;SDS011;69155;49.464;2.108;2023-06-14T00:12:06;15.25;;;8.35;;
79687;SDS011;69155;49.464;2.108;2023-06-14T00:17:37;10.60;;;8.57;;
79687;SDS011;69155;49.464;2.108;2023-06-14T00:20:07;13.07;;;8.40;;
79687;SDS011;69155;49.464;2.108;2023-06-14T00:27:57;12.50;;;9.27;;
79687;SDS011;69155;49.464;2.108;2023-06-14T00:33:19;11.98;;;8.50;;
79687;SDS011;69155;49.464;2.108;2023-06-14T00:35:47;15.75;;;9.75;;
79687;SDS011;69155;49.464;2.108;2023-06-14T00:38:16;14.98;;;10.20;;
79687;SDS011;69155;49.464;2.108;2023-06-14T00:43:37;13.82;;;10.52;;
79687;SDS011;69155;49.464;2.108;2023-06-14T00:56:47;15.18;;;9.32;;
79687;SDS011;69155;49.464;2.108;2023-06-14T00:59:20;14.73;;;9.63;;
79687;SDS011;69155;49.464;2.108;2023-06-14T01:01:48;15.23;;;9.73;;
79687;SDS011;69155;49.464;2.108;2023-06-14T01:12:41;19.88;;;9.48;;
79687;SDS011;69155;49.464;2.108;2023-06-14T01:15:18;13.88;;;10.00;;
79687;SDS011;69155;49.464;2.108;2023-06-14T01:18:06;13.38;;;9.80;;
79687;SDS011;69155;49.464;2.108;2023-06-14T01:20:47;13.23;;;9.93;;
79687;SDS011;69155;49.464;2.108;2023-06-14T01:23:19;13.68;;;9.80;;
79687;SDS011;69155;49.464;2.108;2023-06-14T01:25:47;18.67;;;9.85;;
79687;SDS011;69155;49.464;2.108;2023-06-14T01:28:17;18.20;;;9.25;;
79687;SDS011;69155;49.464;2.108;2023-06-14T01:30:47;17.20;;;10.65;;
79687;SDS011;69155;49.464;2.108;2023-06-14T01:33:20;16.15;;;9.55;;
79687;SDS011;69155;49.464;2.108;2023-06-14T01:35:57;16.23;;;9.45;;
79687;SDS011;69155;49.464;2.108;2023-06-14T01:38:29;17.33;;;9.75;;
79687;SDS011;69155;49.464;2.108;2023-06-14T01:40:55;13.55;;;10.70;;
79687;SDS011;69155;49.464;2.108;2023-06-14T01:43:29;15.73;;;9.90;;
79687;SDS011;69155;49.464;2.108;2023-06-14T01:45:57;12.23;;;9.73;;
79687;SDS011;69155;49.464;2.108;2023-06-14T01:56:25;12.82;;;9.95;;
79687;SDS011;69155;49.464;2.108;2023-06-14T01:58:56;15.05;;;9.57;;
79687;SDS011;69155;49.464;2.108;2023-06-14T02:04:27;17.85;;;10.07;;
79687;SDS011;69155;49.464;2.108;2023-06-14T02:09:59;17.98;;;10.52;;
79687;SDS011;69155;49.464;2.108;2023-06-14T02:12:27;16.90;;;11.13;;
79687;SDS011;69155;49.464;2.108;2023-06-14T02:14:59;13.77;;;9.80;;
79687;SDS011;69155;49.464;2.108;2023-06-14T02:17:27;13.45;;;10.45;;
79687;SDS011;69155;49.464;2.108;2023-06-14T02:19:58;16.02;;;11.00;;
79687;SDS011;69155;49.464;2.108;2023-06-14T02:25:17;12.80;;;9.95;;
79687;SDS011;69155;49.464;2.108;2023-06-14T02:30:48;16.70;;;10.07;;
79687;SDS011;69155;49.464;2.108;2023-06-14T02:33:16;18.80;;;9.77;;
79687;SDS011;69155;49.464;2.108;2023-06-14T02:35:50;14.65;;;10.52;;
79687;SDS011;69155;49.464;2.108;2023-06-14T02:38:18;12.77;;;9.38;;
79687;SDS011;69155;49.464;2.108;2023-06-14T02:40:46;16.70;;;11.32;;
79687;SDS011;69155;49.464;2.108;2023-06-14T02:43:20;14.38;;;10.50;;
79687;SDS011;69155;49.464;2.108;2023-06-14T02:45:48;18.23;;;10.38;;
79687;SDS011;69155;49.464;2.108;2023-06-14T02:48:16;18.58;;;10.63;;
79687;SDS011;69155;49.464;2.108;2023-06-14T02:50:49;17.23;;;9.93;;
79687;SDS011;69155;49.464;2.108;2023-06-14T02:53:17;17.67;;;10.57;;
79687;SDS011;69155;49.464;2.108;2023-06-14T02:55:45;13.98;;;9.25;;
79687;SDS011;69155;49.464;2.108;2023-06-14T02:58:16;13.38;;;10.00;;
79687;SDS011;69155;49.464;2.108;2023-06-14T03:00:48;13.93;;;9.50;;
79687;SDS011;69155;49.464;2.108;2023-06-14T03:06:28;13.63;;;9.25;;
79687;SDS011;69155;49.464;2.108;2023-06-14T03:08:58;14.77;;;9.88;;
79687;SDS011;69155;49.464;2.108;2023-06-14T03:14:48;14.02;;;9.07;;
79687;SDS011;69155;49.464;2.108;2023-06-14T03:17:18;14.07;;;9.68;;
79687;SDS011;69155;49.464;2.108;2023-06-14T03:19:47;17.95;;;10.18;;
79687;SDS011;69155;49.464;2.108;2023-06-14T03:22:18;16.77;;;10.57;;
79687;SDS011;69155;49.464;2.108;2023-06-14T03:24:47;16.20;;;10.15;;
79687;SDS011;69155;49.464;2.108;2023-06-14T03:27:19;11.63;;;9.98;;
79687;SDS011;69155;49.464;2.108;2023-06-14T03:29:47;20.10;;;10.95;;
79687;SDS011;69155;49.464;2.108;2023-06-14T03:32:20;13.55;;;10.35;;
79687;SDS011;69155;49.464;2.108;2023-06-14T03:34:48;13.75;;;10.00;;
79687;SDS011;69155;49.464;2.108;2023-06-14T03:37:19;15.65;;;10.50;;
79687;SDS011;69155;49.464;2.108;2023-06-14T03:39:46;15.65;;;10.82;;
79687;SDS011;69155;49.464;2.108;2023-06-14T03:42:18;17.70;;;10.65;;
79687;SDS011;69155;49.464;2.108;2023-06-14T03:44:44;18.67;;;9.85;;
79687;SDS011;69155;49.464;2.108;2023-06-14T03:47:29;12.80;;;9.73;;
79687;SDS011;69155;49.464;2.108;2023-06-14T03:49:57;13.50;;;9.87;;
79687;SDS011;69155;49.464;2.108;2023-06-14T03:55:28;16.92;;;10.10;;
79687;SDS011;69155;49.464;2.108;2023-06-14T03:57:59;17.35;;;9.90;;
79687;SDS011;69155;49.464;2.108;2023-06-14T04:00:38;22.65;;;9.93;;
79687;SDS011;69155;49.464;2.108;2023-06-14T04:03:07;17.75;;;10.55;;
79687;SDS011;69155;49.464;2.108;2023-06-14T04:05:38;14.25;;;10.15;;
79687;SDS011;69155;49.464;2.108;2023-06-14T04:08:09;16.10;;;10.48;;
79687;SDS011;69155;49.464;2.108;2023-06-14T04:10:38;15.80;;;10.23;;
79687;SDS011;69155;49.464;2.108;2023-06-14T04:13:09;14.85;;;10.98;;
79687;SDS011;69155;49.464;2.108;2023-06-14T04:15:37;13.38;;;9.80;;
79687;SDS011;69155;49.464;2.108;2023-06-14T04:21:08;14.52;;;9.95;;
79687;SDS011;69155;49.464;2.108;2023-06-14T04:23:38;14.98;;;10.93;;
79687;SDS011;69155;49.464;2.108;2023-06-14T04:28:57;13.73;;;10.50;;
79687;SDS011;69155;49.464;2.108;2023-06-14T04:31:29;14.18;;;11.05;;
79687;SDS011;69155;49.464;2.108;2023-06-14T04:33:58;13.73;;;10.45;;
79687;SDS011;69155;49.464;2.108;2023-06-14T04:36:27;13.85;;;9.38;;
79687;SDS011;69155;49.464;2.108;2023-06-14T04:41:51;21.00;;;10.05;;
79687;SDS011;69155;49.464;2.108;2023-06-14T04:44:28;24.02;;;9.85;;
79687;SDS011;69155;49.464;2.108;2023-06-14T04:52:59;29.42;;;11.00;;
79687;SDS011;69155;49.464;2.108;2023-06-14T04:55:28;19.77;;;9.85;;
79687;SDS011;69155;49.464;2.108;2023-06-14T05:00:47;16.23;;;10.10;;
79687;SDS011;69155;49.464;2.108;2023-06-14T05:03:20;14.13;;;10.60;;
79687;SDS011;69155;49.464;2.108;2023-06-14T05:05:49;14.52;;;9.45;;
79687;SDS011;69155;49.464;2.108;2023-06-14T05:08:18;11.60;;;8.95;;
79687;SDS011;69155;49.464;2.108;2023-06-14T05:10:46;15.70;;;10.35;;
79687;SDS011;69155;49.464;2.108;2023-06-14T05:16:17;14.73;;;8.57;;
79687;SDS011;69155;49.464;2.108;2023-06-14T05:18:47;12.60;;;9.70;;
79687;SDS011;69155;49.464;2.108;2023-06-14T05:21:18;14.57;;;9.25;;
79687;SDS011;69155;49.464;2.108;2023-06-14T05:23:49;14.70;;;10.52;;
79687;SDS011;69155;49.464;2.108;2023-06-14T05:26:19;13.95;;;9.95;;
79687;SDS011;69155;49.464;2.108;2023-06-14T05:28:47;15.68;;;9.75;;
79687;SDS011;69155;49.464;2.108;2023-06-14T05:31:13;11.15;;;8.73;;
79687;SDS011;69155;49.464;2.108;2023-06-14T05:33:58;12.82;;;9.05;;
79687;SDS011;69155;49.464;2.108;2023-06-14T05:36:29;16.07;;;8.70;;
79687;SDS011;69155;49.464;2.108;2023-06-14T05:38:58;18.25;;;9.48;;
79687;SDS011;69155;49.464;2.108;2023-06-14T05:41:28;20.15;;;8.70;;
79687;SDS011;69155;49.464;2.108;2023-06-14T05:43:59;11.52;;;8.25;;
79687;SDS011;69155;49.464;2.108;2023-06-14T05:47:07;15.20;;;9.52;;
79687;SDS011;69155;49.464;2.108;2023-06-14T05:52:19;9.40;;;7.80;;
79687;SDS011;69155;49.464;2.108;2023-06-14T05:54:48;13.13;;;8.88;;
79687;SDS011;69155;49.464;2.108;2023-06-14T05:57:16;11.43;;;7.78;;
79687;SDS011;69155;49.464;2.108;2023-06-14T05:59:48;18.45;;;8.55;;
79687;SDS011;69155;49.464;2.108;2023-06-14T06:05:07;10.85;;;8.55;;
79687;SDS011;69155;49.464;2.108;2023-06-14T06:07:39;11.82;;;7.72;;
79687;SDS011;69155;49.464;2.108;2023-06-14T06:10:08;10.63;;;7.68;;
79687;SDS011;69155;49.464;2.108;2023-06-14T06:12:40;15.55;;;8.95;;
79687;SDS011;69155;49.464;2.108;2023-06-14T06:15:17;13.80;;;8.98;;
79687;SDS011;69155;49.464;2.108;2023-06-14T06:20:37;18.52;;;8.63;;
79687;SDS011;69155;49.464;2.108;2023-06-14T06:23:08;10.50;;;7.95;;
79687;SDS011;69155;49.464;2.108;2023-06-14T06:25:37;17.13;;;8.60;;
79687;SDS011;69155;49.464;2.108;2023-06-14T06:28:08;13.23;;;8.35;;
79687;SDS011;69155;49.464;2.108;2023-06-14T06:30:37;15.55;;;8.80;;
79687;SDS011;69155;49.464;2.108;2023-06-14T06:33:08;14.95;;;7.45;;
79687;SDS011;69155;49.464;2.108;2023-06-14T06:35:36;11.07;;;7.97;;
79687;SDS011;69155;49.464;2.108;2023-06-14T06:41:07;14.65;;;8.73;;
79687;SDS011;69155;49.464;2.108;2023-06-14T06:43:38;11.93;;;8.33;;
79687;SDS011;69155;49.464;2.108;2023-06-14T06:46:07;13.23;;;7.82;;
79687;SDS011;69155;49.464;2.108;2023-06-14T06:48:38;17.27;;;8.88;;
79687;SDS011;69155;49.464;2.108;2023-06-14T06:51:07;11.00;;;8.20;;
79687;SDS011;69155;49.464;2.108;2023-06-14T06:56:29;12.23;;;8.40;;
79687;SDS011;69155;49.464;2.108;2023-06-14T06:59:00;11.38;;;8.13;;
79687;SDS011;69155;49.464;2.108;2023-06-14T07:01:28;10.73;;;8.07;;
79687;SDS011;69155;49.464;2.108;2023-06-14T07:03:56;15.65;;;8.63;;
79687;SDS011;69155;49.464;2.108;2023-06-14T07:06:28;9.77;;;7.22;;
79687;SDS011;69155;49.464;2.108;2023-06-14T07:08:59;8.52;;;6.72;;
79687;SDS011;69155;49.464;2.108;2023-06-14T07:11:29;14.45;;;7.20;;
79687;SDS011;69155;49.464;2.108;2023-06-14T07:13:57;28.65;;;9.32;;
79687;SDS011;69155;49.464;2.108;2023-06-14T07:16:28;8.25;;;5.88;;
79687;SDS011;69155;49.464;2.108;2023-06-14T07:18:56;8.07;;;6.47;;
79687;SDS011;69155;49.464;2.108;2023-06-14T07:21:27;9.25;;;6.18;;
79687;SDS011;69155;49.464;2.108;2023-06-14T07:23:58;12.70;;;6.25;;
79687;SDS011;69155;49.464;2.108;2023-06-14T07:26:29;10.82;;;6.53;;
79687;SDS011;69155;49.464;2.108;2023-06-14T07:28:58;9.75;;;5.90;;
79687;SDS011;69155;49.464;2.108;2023-06-14T07:31:38;8.63;;;5.60;;
79687;SDS011;69155;49.464;2.108;2023-06-14T07:34:09;7.40;;;5.75;;
79687;SDS011;69155;49.464;2.108;2023-06-14T07:36:37;6.15;;;5.30;;
79687;SDS011;69155;49.464;2.108;2023-06-14T07:39:09;7.70;;;5.72;;
79687;SDS011;69155;49.464;2.108;2023-06-14T07:41:56;10.68;;;6.00;;
79687;SDS011;69155;49.464;2.108;2023-06-14T07:44:29;10.93;;;6.00;;
79687;SDS011;69155;49.464;2.108;2023-06-14T07:46:57;9.13;;;5.95;;
79687;SDS011;69155;49.464;2.108;2023-06-14T07:49:27;7.70;;;5.65;;
79687;SDS011;69155;49.464;2.108;2023-06-14T07:51:59;8.13;;;5.95;;
79687;SDS011;69155;49.464;2.108;2023-06-14T07:54:26;9.55;;;5.88;;
79687;SDS011;69155;49.464;2.108;2023-06-14T07:56:58;8.52;;;5.82;;
79687;SDS011;69155;49.464;2.108;2023-06-14T07:59:28;11.38;;;5.28;;
79687;SDS011;69155;49.464;2.108;2023-06-14T08:01:57;10.32;;;5.78;;
79687;SDS011;69155;49.464;2.108;2023-06-14T08:04:29;9.10;;;5.95;;
79687;SDS011;69155;49.464;2.108;2023-06-14T08:06:54;9.75;;;5.57;;
79687;SDS011;69155;49.464;2.108;2023-06-14T08:09:20;9.50;;;5.68;;
79687;SDS011;69155;49.464;2.108;2023-06-14T08:11:47;11.67;;;5.67;;
79687;SDS011;69155;49.464;2.108;2023-06-14T08:17:07;8.30;;;5.10;;
79687;SDS011;69155;49.464;2.108;2023-06-14T08:22:39;9.35;;;5.82;;
79687;SDS011;69155;49.464;2.108;2023-06-14T08:25:17;9.40;;;5.47;;
79687;SDS011;69155;49.464;2.108;2023-06-14T08:27:48;7.57;;;5.30;;
79687;SDS011;69155;49.464;2.108;2023-06-14T08:30:37;8.95;;;5.45;;
79687;SDS011;69155;49.464;2.108;2023-06-14T08:39:30;8.88;;;4.85;;
79687;SDS011;69155;49.464;2.108;2023-06-14T08:42:07;16.60;;;5.32;;
79687;SDS011;69155;49.464;2.108;2023-06-14T08:44:40;11.93;;;4.85;;
79687;SDS011;69155;49.464;2.108;2023-06-14T08:49:57;6.57;;;4.72;;
79687;SDS011;69155;49.464;2.108;2023-06-14T08:52:26;6.95;;;4.95;;
79687;SDS011;69155;49.464;2.108;2023-06-14T08:54:58;13.23;;;5.20;;
79687;SDS011;69155;49.464;2.108;2023-06-14T09:00:18;8.95;;;5.18;;
79687;SDS011;69155;49.464;2.108;2023-06-14T09:02:48;6.57;;;5.13;;
79687;SDS011;69155;49.464;2.108;2023-06-14T09:05:19;6.78;;;4.82;;
79687;SDS011;69155;49.464;2.108;2023-06-14T09:07:47;6.20;;;4.72;;
79687;SDS011;69155;49.464;2.108;2023-06-14T09:10:18;7.40;;;4.80;;
79687;SDS011;69155;49.464;2.108;2023-06-14T09:15:16;7.20;;;5.32;;
79687;SDS011;69155;49.464;2.108;2023-06-14T09:17:47;6.55;;;5.10;;
79687;SDS011;69155;49.464;2.108;2023-06-14T09:20:18;8.68;;;4.68;;
79687;SDS011;69155;49.464;2.108;2023-06-14T09:22:50;6.40;;;4.68;;
79687;SDS011;69155;49.464;2.108;2023-06-14T09:25:18;7.10;;;4.30;;
79687;SDS011;69155;49.464;2.108;2023-06-14T09:27:47;6.22;;;4.50;;
79687;SDS011;69155;49.464;2.108;2023-06-14T09:30:19;5.88;;;4.32;;
79687;SDS011;69155;49.464;2.108;2023-06-14T09:32:47;7.53;;;4.57;;
79687;SDS011;69155;49.464;2.108;2023-06-14T09:35:18;7.28;;;4.50;;
79687;SDS011;69155;49.464;2.108;2023-06-14T09:37:49;7.43;;;4.45;;
79687;SDS011;69155;49.464;2.108;2023-06-14T09:40:27;14.50;;;5.35;;
79687;SDS011;69155;49.464;2.108;2023-06-14T09:42:59;13.55;;;4.95;;
79687;SDS011;69155;49.464;2.108;2023-06-14T09:45:27;22.63;;;5.25;;
79687;SDS011;69155;49.464;2.108;2023-06-14T09:50:28;5.60;;;4.68;;
79687;SDS011;69155;49.464;2.108;2023-06-14T09:53:10;7.03;;;5.07;;
79687;SDS011;69155;49.464;2.108;2023-06-14T09:55:46;11.20;;;5.38;;
79687;SDS011;69155;49.464;2.108;2023-06-14T09:58:19;43.63;;;6.50;;
79687;SDS011;69155;49.464;2.108;2023-06-14T10:00:48;8.32;;;5.00;;
79687;SDS011;69155;49.464;2.108;2023-06-14T10:03:21;7.65;;;4.88;;
79687;SDS011;69155;49.464;2.108;2023-06-14T10:05:58;10.32;;;5.18;;
79687;SDS011;69155;49.464;2.108;2023-06-14T10:08:42;8.77;;;5.30;;
79687;SDS011;69155;49.464;2.108;2023-06-14T10:11:17;6.97;;;4.35;;
79687;SDS011;69155;49.464;2.108;2023-06-14T10:13:49;8.98;;;4.88;;
79687;SDS011;69155;49.464;2.108;2023-06-14T10:24:58;27.33;;;4.65;;
79687;SDS011;69155;49.464;2.108;2023-06-14T10:27:30;12.65;;;4.50;;
79687;SDS011;69155;49.464;2.108;2023-06-14T10:30:08;13.63;;;4.35;;
79687;SDS011;69155;49.464;2.108;2023-06-14T10:35:27;6.82;;;4.07;;
79687;SDS011;69155;49.464;2.108;2023-06-14T10:40:59;6.38;;;4.40;;
79687;SDS011;69155;49.464;2.108;2023-06-14T10:43:27;58.45;;;6.65;;
79687;SDS011;69155;49.464;2.108;2023-06-14T10:48:49;33.10;;;5.53;;
79687;SDS011;69155;49.464;2.108;2023-06-14T10:51:31;6.90;;;4.13;;
79687;SDS011;69155;49.464;2.108;2023-06-14T10:54:20;14.02;;;5.30;;
79687;SDS011;69155;49.464;2.108;2023-06-14T10:56:58;8.35;;;4.53;;
79687;SDS011;69155;49.464;2.108;2023-06-14T10:59:26;17.30;;;4.40;;
79687;SDS011;69155;49.464;2.108;2023-06-14T11:10:39;5.85;;;4.13;;
79687;SDS011;69155;49.464;2.108;2023-06-14T11:13:05;7.97;;;4.00;;
79687;SDS011;69155;49.464;2.108;2023-06-14T11:15:37;28.40;;;5.82;;
79687;SDS011;69155;49.464;2.108;2023-06-14T11:18:08;9.10;;;4.63;;
79687;SDS011;69155;49.464;2.108;2023-06-14T11:20:58;22.77;;;4.60;;
79687;SDS011;69155;49.464;2.108;2023-06-14T11:23:29;4.65;;;3.92;;
79687;SDS011;69155;49.464;2.108;2023-06-14T11:25:58;6.72;;;4.18;;
79687;SDS011;69155;49.464;2.108;2023-06-14T11:31:19;13.52;;;4.53;;
79687;SDS011;69155;49.464;2.108;2023-06-14T11:33:58;11.30;;;5.38;;
79687;SDS011;69155;49.464;2.108;2023-06-14T11:36:29;7.53;;;4.43;;
79687;SDS011;69155;49.464;2.108;2023-06-14T11:39:23;8.32;;;4.65;;
79687;SDS011;69155;49.464;2.108;2023-06-14T11:41:58;5.88;;;4.30;;
79687;SDS011;69155;49.464;2.108;2023-06-14T11:44:29;7.20;;;4.32;;
79687;SDS011;69155;49.464;2.108;2023-06-14T11:46:58;7.55;;;4.70;;
79687;SDS011;69155;49.464;2.108;2023-06-14T11:49:34;6.63;;;4.43;;
79687;SDS011;69155;49.464;2.108;2023-06-14T11:52:08;9.30;;;4.50;;
79687;SDS011;69155;49.464;2.108;2023-06-14T11:54:37;6.03;;;4.47;;
79687;SDS011;69155;49.464;2.108;2023-06-14T11:57:09;8.35;;;4.50;;
79687;SDS011;69155;49.464;2.108;2023-06-14T11:59:38;7.68;;;5.03;;
79687;SDS011;69155;49.464;2.108;2023-06-14T12:02:07;5.97;;;4.43;;
79687;SDS011;69155;49.464;2.108;2023-06-14T12:04:40;6.47;;;4.40;;
79687;SDS011;69155;49.464;2.108;2023-06-14T12:07:18;5.70;;;4.45;;
79687;SDS011;69155;49.464;2.108;2023-06-14T12:12:27;7.18;;;4.82;;
79687;SDS011;69155;49.464;2.108;2023-06-14T12:14:57;7.38;;;4.78;;
79687;SDS011;69155;49.464;2.108;2023-06-14T12:17:31;7.97;;;5.00;;
79687;SDS011;69155;49.464;2.108;2023-06-14T12:20:10;9.52;;;4.53;;
79687;SDS011;69155;49.464;2.108;2023-06-14T12:22:50;8.63;;;4.57;;
79687;SDS011;69155;49.464;2.108;2023-06-14T12:25:30;14.75;;;4.60;;
79687;SDS011;69155;49.464;2.108;2023-06-14T12:28:08;16.23;;;4.88;;
79687;SDS011;69155;49.464;2.108;2023-06-14T12:30:37;72.10;;;6.88;;
79687;SDS011;69155;49.464;2.108;2023-06-14T12:33:08;17.13;;;5.32;;
79687;SDS011;69155;49.464;2.108;2023-06-14T12:35:39;9.27;;;6.43;;
79687;SDS011;69155;49.464;2.108;2023-06-14T12:38:07;12.98;;;4.60;;
79687;SDS011;69155;49.464;2.108;2023-06-14T12:40:38;47.05;;;6.20;;
79687;SDS011;69155;49.464;2.108;2023-06-14T12:43:07;5.82;;;4.13;;
79687;SDS011;69155;49.464;2.108;2023-06-14T12:45:38;15.48;;;5.05;;
79687;SDS011;69155;49.464;2.108;2023-06-14T12:48:07;8.30;;;4.88;;
79687;SDS011;69155;49.464;2.108;2023-06-14T12:50:39;6.60;;;4.22;;
79687;SDS011;69155;49.464;2.108;2023-06-14T12:53:07;15.27;;;4.93;;
79687;SDS011;69155;49.464;2.108;2023-06-14T12:55:39;5.82;;;4.13;;
79687;SDS011;69155;49.464;2.108;2023-06-14T12:58:09;7.57;;;4.93;;
79687;SDS011;69155;49.464;2.108;2023-06-14T13:00:37;9.48;;;4.93;;
79687;SDS011;69155;49.464;2.108;2023-06-14T13:03:09;7.10;;;5.10;;
79687;SDS011;69155;49.464;2.108;2023-06-14T13:05:37;8.60;;;4.95;;
79687;SDS011;69155;49.464;2.108;2023-06-14T13:08:08;7.13;;;4.80;;
79687;SDS011;69155;49.464;2.108;2023-06-14T13:10:40;8.02;;;4.72;;
79687;SDS011;69155;49.464;2.108;2023-06-14T13:13:08;10.07;;;5.15;;
79687;SDS011;69155;49.464;2.108;2023-06-14T13:15:39;6.70;;;4.93;;
79687;SDS011;69155;49.464;2.108;2023-06-14T13:18:08;6.85;;;4.82;;
79687;SDS011;69155;49.464;2.108;2023-06-14T13:20:39;7.18;;;4.80;;
79687;SDS011;69155;49.464;2.108;2023-06-14T13:23:08;7.63;;;4.32;;
79687;SDS011;69155;49.464;2.108;2023-06-14T13:25:39;10.07;;;5.03;;
79687;SDS011;69155;49.464;2.108;2023-06-14T13:28:08;8.90;;;4.85;;
79687;SDS011;69155;49.464;2.108;2023-06-14T13:30:39;7.95;;;5.05;;
79687;SDS011;69155;49.464;2.108;2023-06-14T13:33:07;7.35;;;4.47;;
79687;SDS011;69155;49.464;2.108;2023-06-14T13:35:39;6.43;;;4.45;;
79687;SDS011;69155;49.464;2.108;2023-06-14T13:38:08;36.08;;;5.57;;
79687;SDS011;69155;49.464;2.108;2023-06-14T13:40:39;21.55;;;5.28;;
79687;SDS011;69155;49.464;2.108;2023-06-14T13:43:07;7.68;;;5.20;;
79687;SDS011;69155;49.464;2.108;2023-06-14T13:45:38;10.15;;;4.72;;
79687;SDS011;69155;49.464;2.108;2023-06-14T13:48:09;11.88;;;5.25;;
79687;SDS011;69155;49.464;2.108;2023-06-14T13:50:38;9.15;;;4.82;;
79687;SDS011;69155;49.464;2.108;2023-06-14T13:53:09;4.68;;;3.65;;
79687;SDS011;69155;49.464;2.108;2023-06-14T13:55:37;7.28;;;5.07;;
79687;SDS011;69155;49.464;2.108;2023-06-14T13:58:08;6.40;;;4.45;;
79687;SDS011;69155;49.464;2.108;2023-06-14T14:00:39;7.72;;;5.00;;
79687;SDS011;69155;49.464;2.108;2023-06-14T14:03:08;11.50;;;5.32;;
79687;SDS011;69155;49.464;2.108;2023-06-14T14:05:39;6.38;;;4.85;;
79687;SDS011;69155;49.464;2.108;2023-06-14T14:08:07;10.63;;;4.93;;
79687;SDS011;69155;49.464;2.108;2023-06-14T14:10:39;8.85;;;4.68;;
79687;SDS011;69155;49.464;2.108;2023-06-14T14:13:07;6.60;;;4.82;;
79687;SDS011;69155;49.464;2.108;2023-06-14T14:15:38;7.43;;;4.72;;
79687;SDS011;69155;49.464;2.108;2023-06-14T14:18:09;5.90;;;4.90;;
79687;SDS011;69155;49.464;2.108;2023-06-14T14:20:38;6.53;;;4.93;;
79687;SDS011;69155;49.464;2.108;2023-06-14T14:23:09;7.50;;;4.75;;
79687;SDS011;69155;49.464;2.108;2023-06-14T14:25:37;7.55;;;4.60;;
79687;SDS011;69155;49.464;2.108;2023-06-14T14:28:03;7.93;;;5.18;;
79687;SDS011;69155;49.464;2.108;2023-06-14T14:30:28;14.23;;;5.00;;
79687;SDS011;69155;49.464;2.108;2023-06-14T14:32:54;5.63;;;4.70;;
79687;SDS011;69155;49.464;2.108;2023-06-14T14:35:19;6.78;;;4.68;;
79687;SDS011;69155;49.464;2.108;2023-06-14T14:38:02;14.10;;;5.43;;
79687;SDS011;69155;49.464;2.108;2023-06-14T14:40:37;6.22;;;4.75;;
79687;SDS011;69155;49.464;2.108;2023-06-14T14:43:04;7.82;;;5.43;;
79687;SDS011;69155;49.464;2.108;2023-06-14T14:45:33;8.50;;;5.07;;
79687;SDS011;69155;49.464;2.108;2023-06-14T14:48:03;7.32;;;4.50;;
79687;SDS011;69155;49.464;2.108;2023-06-14T14:50:31;9.32;;;5.05;;
79687;SDS011;69155;49.464;2.108;2023-06-14T14:52:59;7.23;;;5.30;;
79687;SDS011;69155;49.464;2.108;2023-06-14T14:55:31;8.63;;;4.95;;
79687;SDS011;69155;49.464;2.108;2023-06-14T14:58:09;10.35;;;4.80;;
79687;SDS011;69155;49.464;2.108;2023-06-14T15:00:36;8.32;;;4.72;;
79687;SDS011;69155;49.464;2.108;2023-06-14T15:03:09;6.05;;;4.38;;
79687;SDS011;69155;49.464;2.108;2023-06-14T15:05:34;7.47;;;5.10;;
79687;SDS011;69155;49.464;2.108;2023-06-14T15:07:59;6.90;;;4.60;;
79687;SDS011;69155;49.464;2.108;2023-06-14T15:10:25;11.83;;;5.00;;
79687;SDS011;69155;49.464;2.108;2023-06-14T15:13:13;33.25;;;5.72;;
79687;SDS011;69155;49.464;2.108;2023-06-14T15:15:52;6.13;;;4.63;;
79687;SDS011;69155;49.464;2.108;2023-06-14T15:18:29;8.00;;;4.60;;
79687;SDS011;69155;49.464;2.108;2023-06-14T15:20:56;7.20;;;4.70;;
79687;SDS011;69155;49.464;2.108;2023-06-14T15:23:26;10.95;;;4.45;;
79687;SDS011;69155;49.464;2.108;2023-06-14T15:25:51;10.10;;;4.85;;
79687;SDS011;69155;49.464;2.108;2023-06-14T15:28:28;5.90;;;4.63;;
79687;SDS011;69155;49.464;2.108;2023-06-14T15:31:00;5.75;;;4.53;;
79687;SDS011;69155;49.464;2.108;2023-06-14T15:33:28;5.55;;;4.47;;
79687;SDS011;69155;49.464;2.108;2023-06-14T15:36:00;10.63;;;4.72;;
79687;SDS011;69155;49.464;2.108;2023-06-14T15:38:28;6.28;;;4.60;;
79687;SDS011;69155;49.464;2.108;2023-06-14T15:40:59;8.48;;;4.80;;
79687;SDS011;69155;49.464;2.108;2023-06-14T15:43:27;8.20;;;5.68;;
79687;SDS011;69155;49.464;2.108;2023-06-14T15:45:58;8.13;;;5.35;;
79687;SDS011;69155;49.464;2.108;2023-06-14T15:48:30;13.68;;;5.28;;
79687;SDS011;69155;49.464;2.108;2023-06-14T15:50:58;9.10;;;4.85;;
79687;SDS011;69155;49.464;2.108;2023-06-14T15:53:29;7.90;;;4.68;;
79687;SDS011;69155;49.464;2.108;2023-06-14T15:56:00;7.47;;;4.72;;
79687;SDS011;69155;49.464;2.108;2023-06-14T15:58:25;6.28;;;4.45;;
79687;SDS011;69155;49.464;2.108;2023-06-14T16:00:59;5.85;;;4.68;;
79687;SDS011;69155;49.464;2.108;2023-06-14T16:03:27;6.30;;;4.65;;
79687;SDS011;69155;49.464;2.108;2023-06-14T16:05:52;6.95;;;5.13;;
79687;SDS011;69155;49.464;2.108;2023-06-14T16:08:20;8.98;;;4.75;;
79687;SDS011;69155;49.464;2.108;2023-06-14T16:10:48;7.10;;;5.00;;
79687;SDS011;69155;49.464;2.108;2023-06-14T16:13:17;10.45;;;5.20;;
79687;SDS011;69155;49.464;2.108;2023-06-14T16:15:45;10.73;;;6.03;;
79687;SDS011;69155;49.464;2.108;2023-06-14T16:18:15;8.95;;;5.90;;
79687;SDS011;69155;49.464;2.108;2023-06-14T16:20:45;7.88;;;4.90;;
79687;SDS011;69155;49.464;2.108;2023-06-14T16:23:18;10.20;;;5.40;;
79687;SDS011;69155;49.464;2.108;2023-06-14T16:25:48;7.65;;;5.00;;
79687;SDS011;69155;49.464;2.108;2023-06-14T16:28:19;6.15;;;4.65;;
79687;SDS011;69155;49.464;2.108;2023-06-14T16:30:47;6.55;;;5.20;;
79687;SDS011;69155;49.464;2.108;2023-06-14T16:33:19;9.27;;;5.05;;
79687;SDS011;69155;49.464;2.108;2023-06-14T16:35:47;9.25;;;4.53;;
79687;SDS011;69155;49.464;2.108;2023-06-14T16:38:18;7.40;;;4.60;;
79687;SDS011;69155;49.464;2.108;2023-06-14T16:40:48;11.48;;;4.57;;
79687;SDS011;69155;49.464;2.108;2023-06-14T16:43:21;6.55;;;4.75;;
79687;SDS011;69155;49.464;2.108;2023-06-14T16:45:58;7.53;;;4.90;;
79687;SDS011;69155;49.464;2.108;2023-06-14T16:48:29;9.30;;;5.20;;
79687;SDS011;69155;49.464;2.108;2023-06-14T16:50:57;7.90;;;4.82;;
79687;SDS011;69155;49.464;2.108;2023-06-14T16:53:28;7.43;;;4.43;;
79687;SDS011;69155;49.464;2.108;2023-06-14T16:56:00;7.28;;;5.15;;
79687;SDS011;69155;49.464;2.108;2023-06-14T16:58:28;6.57;;;5.15;;
79687;SDS011;69155;49.464;2.108;2023-06-14T17:01:38;7.68;;;4.90;;
79687;SDS011;69155;49.464;2.108;2023-06-14T17:03:50;7.00;;;4.97;;
79687;SDS011;69155;49.464;2.108;2023-06-14T17:06:28;5.95;;;5.25;;
79687;SDS011;69155;49.464;2.108;2023-06-14T17:08:59;6.22;;;4.82;;
79687;SDS011;69155;49.464;2.108;2023-06-14T17:11:27;6.78;;;5.40;;
79687;SDS011;69155;49.464;2.108;2023-06-14T17:16:59;9.85;;;4.90;;
79687;SDS011;69155;49.464;2.108;2023-06-14T17:19:27;6.47;;;5.07;;
79687;SDS011;69155;49.464;2.108;2023-06-14T17:22:00;9.32;;;6.07;;
79687;SDS011;69155;49.464;2.108;2023-06-14T17:24:28;7.85;;;5.22;;
79687;SDS011;69155;49.464;2.108;2023-06-14T17:32:40;10.55;;;5.75;;
79687;SDS011;69155;49.464;2.108;2023-06-14T17:35:08;10.30;;;5.63;;
79687;SDS011;69155;49.464;2.108;2023-06-14T17:40:39;7.82;;;5.18;;
79687;SDS011;69155;49.464;2.108;2023-06-14T17:48:50;12.05;;;6.30;;
79687;SDS011;69155;49.464;2.108;2023-06-14T17:51:18;28.65;;;6.07;;